KCRP/CRP METAR and TAF weather

Enter ICAO airport designator
Station Type Date Time Source
KCRP METAR 2018/09/21 23:51 UTC NOAA

KCRP 212351Z 14010KT 10SM FEW027 FEW040 BKN200 BKN250 31/26 A2987 RMK AO2 SLP114 T03060256 10339 20306 53009


Station Type Date Time Source
KCRP Decoded METAR 2018/09/21 23:51 UTC NOAA

CORPUS CHRISTI INTERNATIONAL , TX, United States (KCRP) 27-46N 97-31W 16M
Sep 21, 2018 - 07:51 PM EDT / 2018.09.21 2351 UTC
Wind: from the SE (140 degrees) at 12 MPH (10 KT):0
Visibility: 10 mile(s):0
Sky conditions: mostly cloudy
Temperature: 87.1 F (30.6 C)
Heat index: 99.9 F (37.7 C):1
Dew Point: 78.1 F (25.6 C)
Relative Humidity: 74%
Pressure (altimeter): 29.87 in. Hg (1011 hPa)
Pressure tendency: 0.03 inches (0.9 hPa) higher than three hours ago
ob: KCRP 212351Z 14010KT 10SM FEW027 FEW040 BKN200 BKN250 31/26 A2987 RMK AO2 SLP114 T03060256 10339 20306 53009
cycle: 0

Station Type Date Time Source
KCRP TAF 2018/09/21 18:34 UTC NOAA

TAF
AMD KCRP 211732Z 2118/2218 15010KT P6SM SCT035 BKN250
FM212000 14013G20KT P6SM SCT040 SCT250
FM220200 14011KT P6SM SCT020 BKN250
FM220900 16006KT P6SM SCT020 BKN120 PROB30 2210/2214 5SM -SHRA BR BKN020
FM221400 17008KT P6SM VCTS BKN025CB BKN080
TEMPO 2214/2218 4SM TSRA BKN020CB


Example: see airport list